createdAt,value
2018-06-09T00:01:33.899Z,12.00
2018-06-09T00:04:02.201Z,11.10
2018-06-09T00:06:30.360Z,12.50
2018-06-09T00:08:58.725Z,10.60
2018-06-09T00:11:27.066Z,10.73
2018-06-09T00:13:55.269Z,12.90
2018-06-09T00:16:23.494Z,12.03
2018-06-09T00:18:52.742Z,11.00
2018-06-09T00:21:21.099Z,13.60
2018-06-09T00:23:49.317Z,12.10
2018-06-09T00:26:17.745Z,12.40
2018-06-09T00:28:45.925Z,12.40
2018-06-09T00:31:14.229Z,11.87
2018-06-09T00:33:42.600Z,12.40
2018-06-09T00:36:11.296Z,12.03
2018-06-09T00:38:39.651Z,12.23
2018-06-09T00:41:07.967Z,11.47
2018-06-09T00:43:36.166Z,13.27
2018-06-09T00:46:04.377Z,13.13
2018-06-09T00:48:32.737Z,10.67
2018-06-09T00:51:00.932Z,11.07
2018-06-09T00:53:29.096Z,12.70
2018-06-09T00:56:08.557Z,11.97
2018-06-09T00:58:36.695Z,11.77
2018-06-09T01:01:04.887Z,12.30
2018-06-09T01:03:33.055Z,12.53
2018-06-09T01:06:01.193Z,15.83
2018-06-09T01:08:29.380Z,12.03
2018-06-09T01:10:57.607Z,12.53
2018-06-09T01:13:25.730Z,11.90
2018-06-09T01:15:53.884Z,12.97
2018-06-09T01:18:22.036Z,13.50
2018-06-09T01:20:50.163Z,13.50
2018-06-09T01:23:18.410Z,11.97
2018-06-09T01:25:46.581Z,13.13
2018-06-09T01:28:14.743Z,11.90
2018-06-09T01:30:42.914Z,12.10
2018-06-09T01:33:11.077Z,12.20
2018-06-09T01:35:39.224Z,13.60
2018-06-09T01:38:07.370Z,13.87
2018-06-09T01:40:35.502Z,12.53
2018-06-09T01:43:03.663Z,12.23
2018-06-09T01:45:31.807Z,14.17
2018-06-09T01:48:00.008Z,12.57
2018-06-09T01:50:28.142Z,12.90
2018-06-09T01:52:56.307Z,14.23
2018-06-09T01:55:24.511Z,14.13
2018-06-09T01:57:52.650Z,14.00
2018-06-09T02:00:20.827Z,14.37
2018-06-09T02:02:48.984Z,14.33
2018-06-09T02:05:17.139Z,13.43
2018-06-09T02:07:45.292Z,12.37
2018-06-09T02:10:13.470Z,12.97
2018-06-09T02:12:41.605Z,13.03
2018-06-09T02:15:09.772Z,12.77
2018-06-09T02:17:37.950Z,16.33
2018-06-09T02:20:06.143Z,14.07
2018-06-09T02:22:34.292Z,14.00
2018-06-09T02:25:02.499Z,15.60
2018-06-09T02:27:30.640Z,14.60
2018-06-09T02:29:58.818Z,13.93
2018-06-09T02:32:27.003Z,13.97
2018-06-09T02:34:55.163Z,13.83
2018-06-09T02:37:23.310Z,13.77
2018-06-09T02:39:51.459Z,13.03
2018-06-09T02:42:19.623Z,14.37
2018-06-09T02:44:47.796Z,16.10
2018-06-09T02:47:15.982Z,15.60
2018-06-09T02:49:44.134Z,15.20
2018-06-09T02:52:12.309Z,16.03
2018-06-09T02:54:45.470Z,14.10
2018-06-09T02:57:13.626Z,14.67
2018-06-09T02:59:41.816Z,15.60
2018-06-09T03:02:09.968Z,15.77
2018-06-09T03:04:38.104Z,14.53
2018-06-09T03:07:06.323Z,15.67
2018-06-09T03:09:34.463Z,15.90
2018-06-09T03:12:02.718Z,15.57
2018-06-09T03:14:30.872Z,14.00
2018-06-09T03:16:59.060Z,16.87
2018-06-09T03:19:27.204Z,14.63
2018-06-09T03:21:55.352Z,14.90
2018-06-09T03:24:23.526Z,14.87
2018-06-09T03:26:51.772Z,13.50
2018-06-09T03:29:19.906Z,14.30
2018-06-09T03:31:48.063Z,14.43
2018-06-09T03:34:16.214Z,15.13
2018-06-09T03:36:44.373Z,15.80
2018-06-09T03:39:12.514Z,15.60
2018-06-09T03:41:40.668Z,14.20
2018-06-09T03:44:08.851Z,14.77
2018-06-09T03:46:37.011Z,14.30
2018-06-09T03:49:05.248Z,15.43
2018-06-09T03:51:33.407Z,15.70
2018-06-09T03:54:01.568Z,14.53
2018-06-09T03:56:29.723Z,16.23
2018-06-09T03:58:57.878Z,15.20
2018-06-09T04:01:26.053Z,15.57
2018-06-09T04:03:54.321Z,16.00
2018-06-09T04:06:22.491Z,15.03
2018-06-09T04:08:50.688Z,17.90
2018-06-09T04:11:18.949Z,14.47
2018-06-09T04:13:47.070Z,14.83
2018-06-09T04:16:15.280Z,16.43
2018-06-09T04:18:43.424Z,14.30
2018-06-09T04:21:11.833Z,16.53
2018-06-09T04:23:39.956Z,15.13
2018-06-09T04:26:08.180Z,15.60
2018-06-09T04:28:36.319Z,15.67
2018-06-09T04:31:04.492Z,15.33
2018-06-09T04:33:32.658Z,13.13
2018-06-09T04:36:00.776Z,12.73
2018-06-09T04:38:28.932Z,13.90
2018-06-09T04:40:57.080Z,14.77
2018-06-09T04:43:25.303Z,14.50
2018-06-09T04:45:53.479Z,14.17
2018-06-09T04:48:21.647Z,14.70
2018-06-09T04:50:49.821Z,14.10
2018-06-09T04:53:17.959Z,15.50
2018-06-09T04:55:46.111Z,14.20
2018-06-09T04:58:14.341Z,13.47
2018-06-09T05:00:42.486Z,16.07
2018-06-09T05:03:10.639Z,17.83
2018-06-09T05:05:38.811Z,18.47
2018-06-09T05:08:06.965Z,17.23
2018-06-09T05:10:35.123Z,16.00
2018-06-09T05:13:03.302Z,16.77
2018-06-09T05:15:31.425Z,16.40
2018-06-09T05:17:59.647Z,16.77
2018-06-09T05:20:27.796Z,14.97
2018-06-09T05:22:55.955Z,15.33
2018-06-09T05:25:24.115Z,19.73
2018-06-09T05:27:52.266Z,13.23
2018-06-09T05:30:20.399Z,14.30
2018-06-09T05:32:48.626Z,15.13
2018-06-09T05:35:16.808Z,14.43
2018-06-09T05:37:44.963Z,14.17
2018-06-09T05:40:13.111Z,14.63
2018-06-09T05:42:41.258Z,13.77
2018-06-09T05:45:09.403Z,13.97
2018-06-09T05:47:37.587Z,12.97
2018-06-09T05:50:05.735Z,12.80
2018-06-09T05:52:34.185Z,13.40
2018-06-09T05:55:02.323Z,13.33
2018-06-09T05:57:30.460Z,16.03
2018-06-09T05:59:58.731Z,12.40
2018-06-09T06:02:26.907Z,14.00
2018-06-09T06:04:55.033Z,13.93
2018-06-09T06:07:23.179Z,14.13
2018-06-09T06:09:51.375Z,12.90
2018-06-09T06:12:19.594Z,13.70
2018-06-09T06:14:47.724Z,13.47
2018-06-09T06:17:15.874Z,14.30
2018-06-09T06:19:44.032Z,14.97
2018-06-09T06:22:12.187Z,14.20
2018-06-09T06:24:40.339Z,13.80
2018-06-09T06:27:08.483Z,13.70
2018-06-09T06:29:36.643Z,14.00
2018-06-09T06:32:04.802Z,14.10
2018-06-09T06:34:32.938Z,13.80
2018-06-09T06:37:01.105Z,13.57
2018-06-09T06:39:29.270Z,13.47
2018-06-09T06:41:57.436Z,13.80
2018-06-09T06:44:25.612Z,13.97
2018-06-09T06:46:53.799Z,13.83
2018-06-09T06:49:21.976Z,13.30
2018-06-09T06:51:50.143Z,14.67
2018-06-09T06:54:18.278Z,13.87
2018-06-09T06:56:46.419Z,14.27
2018-06-09T06:59:14.654Z,13.80
2018-06-09T07:01:42.820Z,14.20
2018-06-09T07:04:10.967Z,12.90
2018-06-09T07:06:39.123Z,15.73
2018-06-09T07:09:08.287Z,16.13
2018-06-09T07:11:36.692Z,13.90
2018-06-09T07:14:04.845Z,13.50
2018-06-09T07:16:33.005Z,11.50
2018-06-09T07:19:01.407Z,14.80
2018-06-09T07:21:29.551Z,14.83
2018-06-09T07:23:57.814Z,12.87
2018-06-09T07:26:26.069Z,12.67
2018-06-09T07:28:54.195Z,13.63
2018-06-09T07:31:22.349Z,15.93
2018-06-09T07:33:50.551Z,12.90
2018-06-09T07:36:18.683Z,12.73
2018-06-09T07:38:46.830Z,12.00
2018-06-09T07:41:15.017Z,13.53
2018-06-09T07:43:43.175Z,11.93
2018-06-09T07:46:11.359Z,15.20
2018-06-09T07:48:39.554Z,12.57
2018-06-09T07:51:07.706Z,13.43
2018-06-09T07:53:35.895Z,11.07
2018-06-09T07:56:04.123Z,12.60
2018-06-09T07:58:32.376Z,12.50
2018-06-09T08:01:01.140Z,12.00
2018-06-09T08:03:29.284Z,13.20
2018-06-09T08:05:58.299Z,12.53
2018-06-09T08:08:26.440Z,12.80
2018-06-09T08:10:54.597Z,12.27
2018-06-09T08:13:22.772Z,13.87
2018-06-09T08:15:50.936Z,13.57
2018-06-09T08:18:19.084Z,12.27
2018-06-09T08:20:47.384Z,10.83
2018-06-09T08:23:15.796Z,11.37
2018-06-09T08:25:44.303Z,12.60
2018-06-09T08:28:12.585Z,11.80
2018-06-09T08:30:40.723Z,15.40
2018-06-09T08:33:08.896Z,14.13
2018-06-09T08:35:37.059Z,15.40
2018-06-09T08:38:05.753Z,16.53
2018-06-09T08:40:33.946Z,15.70
2018-06-09T08:43:02.109Z,15.10
2018-06-09T08:45:30.256Z,19.03
2018-06-09T08:47:58.409Z,16.13
2018-06-09T08:50:26.581Z,16.30
2018-06-09T08:52:55.207Z,18.67
2018-06-09T08:55:23.359Z,16.67
2018-06-09T08:57:51.510Z,16.03
2018-06-09T09:00:19.638Z,16.20
2018-06-09T09:02:47.859Z,16.67
2018-06-09T09:05:16.007Z,16.33
2018-06-09T09:07:44.156Z,15.87
2018-06-09T09:10:12.357Z,15.93
2018-06-09T09:12:40.497Z,15.47
2018-06-09T09:15:08.687Z,14.27
2018-06-09T09:17:36.814Z,13.67
2018-06-09T09:20:04.964Z,15.10
2018-06-09T09:22:33.122Z,12.20
2018-06-09T09:25:01.275Z,12.77
2018-06-09T09:27:29.414Z,14.93
2018-06-09T09:29:57.571Z,13.60
2018-06-09T09:32:25.728Z,12.47
2018-06-09T09:34:53.886Z,13.20
2018-06-09T09:37:22.034Z,12.87
2018-06-09T09:39:50.197Z,13.33
2018-06-09T09:42:18.386Z,11.17
2018-06-09T09:44:46.548Z,12.60
2018-06-09T09:47:14.710Z,13.73
2018-06-09T09:49:42.924Z,12.43
2018-06-09T09:52:11.068Z,11.33
2018-06-09T09:54:40.524Z,11.37
2018-06-09T09:57:08.667Z,11.47
2018-06-09T09:59:36.848Z,12.10
2018-06-09T10:02:05.008Z,11.67
2018-06-09T10:04:33.212Z,11.47
2018-06-09T10:07:01.379Z,11.70
2018-06-09T10:09:29.592Z,12.90
2018-06-09T10:11:57.824Z,12.53
2018-06-09T10:14:25.975Z,13.00
2018-06-09T10:17:00.652Z,11.90
2018-06-09T10:19:28.814Z,11.67
2018-06-09T10:21:56.949Z,12.00
2018-06-09T10:24:25.145Z,10.60
2018-06-09T10:26:53.433Z,11.80
2018-06-09T10:29:21.602Z,11.80
2018-06-09T10:31:49.776Z,10.80
2018-06-09T10:34:17.975Z,12.27
2018-06-09T10:36:46.162Z,12.13
2018-06-09T10:39:14.364Z,11.70
2018-06-09T10:41:42.600Z,10.73
2018-06-09T10:44:10.744Z,12.00
2018-06-09T10:46:38.894Z,12.40
2018-06-09T10:49:07.077Z,12.17
2018-06-09T10:51:35.256Z,11.10
2018-06-09T10:54:03.418Z,10.90
2018-06-09T10:56:31.590Z,12.03
2018-06-09T10:58:59.735Z,11.10
2018-06-09T11:01:27.883Z,11.57
2018-06-09T11:03:56.040Z,11.00
2018-06-09T11:06:24.199Z,11.60
2018-06-09T11:08:52.354Z,10.50
2018-06-09T11:11:20.515Z,12.17
2018-06-09T11:13:48.760Z,14.03
2018-06-09T11:16:16.896Z,11.17
2018-06-09T11:18:45.092Z,11.70
2018-06-09T11:21:13.285Z,11.40
2018-06-09T11:23:41.419Z,11.37
2018-06-09T11:26:09.570Z,11.70
2018-06-09T11:28:37.744Z,11.20
2018-06-09T11:31:05.880Z,11.30
2018-06-09T11:33:34.037Z,10.37
2018-06-09T11:36:02.207Z,11.90
2018-06-09T11:38:30.441Z,11.47
2018-06-09T11:40:58.671Z,10.17
2018-06-09T11:43:26.827Z,10.97
2018-06-09T11:45:55.033Z,10.17
2018-06-09T11:48:23.233Z,10.20
2018-06-09T11:50:51.375Z,10.57
2018-06-09T11:53:19.524Z,10.07
2018-06-09T11:55:47.727Z,11.23
2018-06-09T11:58:15.884Z,10.63
2018-06-09T12:00:44.023Z,10.40
2018-06-09T12:03:12.191Z,10.33
2018-06-09T12:05:40.479Z,11.00
2018-06-09T12:08:08.575Z,10.40
2018-06-09T12:10:36.786Z,10.60
2018-06-09T12:13:04.936Z,10.73
2018-06-09T12:15:33.115Z,9.13
2018-06-09T12:18:01.263Z,9.57
2018-06-09T12:20:29.478Z,9.37
2018-06-09T12:22:57.608Z,8.80
2018-06-09T12:25:25.750Z,7.90
2018-06-09T12:27:53.872Z,8.13
2018-06-09T12:30:22.012Z,8.60
2018-06-09T12:32:50.201Z,8.20
2018-06-09T12:35:18.329Z,8.80
2018-06-09T12:37:46.480Z,9.33
2018-06-09T12:40:14.629Z,7.07
2018-06-09T12:42:42.763Z,8.57
2018-06-09T12:45:10.900Z,7.97
2018-06-09T12:47:39.071Z,6.43
2018-06-09T12:50:07.222Z,7.40
2018-06-09T12:52:35.346Z,7.00
2018-06-09T12:55:03.508Z,10.40
2018-06-09T12:57:31.668Z,7.23
2018-06-09T12:59:59.810Z,6.87
2018-06-09T13:02:27.950Z,7.20
2018-06-09T13:04:56.082Z,6.60
2018-06-09T13:07:24.216Z,6.13
2018-06-09T13:09:52.394Z,6.23
2018-06-09T13:12:20.595Z,5.30
2018-06-09T13:14:48.727Z,7.10
2018-06-09T13:17:16.868Z,6.67
2018-06-09T13:19:45.026Z,7.03
2018-06-09T13:22:13.176Z,5.93
2018-06-09T13:24:41.343Z,5.77
2018-06-09T13:27:09.481Z,8.17
2018-06-09T13:29:37.619Z,6.53
2018-06-09T13:32:05.758Z,6.80
2018-06-09T13:34:33.896Z,7.03
2018-06-09T13:37:02.039Z,6.03
2018-06-09T13:39:30.166Z,8.03
2018-06-09T13:41:58.315Z,6.73
2018-06-09T13:44:26.448Z,6.43
2018-06-09T13:46:54.709Z,7.87
2018-06-09T13:49:22.791Z,7.73
2018-06-09T13:51:50.951Z,8.00
2018-06-09T13:54:19.108Z,7.20
2018-06-09T13:56:47.219Z,7.47
2018-06-09T13:59:15.380Z,6.50
2018-06-09T14:01:43.560Z,6.70
2018-06-09T14:04:11.701Z,7.47
2018-06-09T14:06:39.828Z,7.53
2018-06-09T14:09:08.360Z,7.63
2018-06-09T14:11:36.511Z,7.50
2018-06-09T14:14:04.676Z,8.70
2018-06-09T14:16:32.840Z,8.47
2018-06-09T14:19:00.995Z,8.17
2018-06-09T14:21:29.155Z,8.03
2018-06-09T14:23:57.289Z,7.80
2018-06-09T14:26:25.429Z,7.87
2018-06-09T14:28:53.560Z,8.27
2018-06-09T14:31:21.736Z,8.07
2018-06-09T14:33:49.862Z,8.57
2018-06-09T14:36:18.027Z,8.70
2018-06-09T14:38:46.302Z,8.87
2018-06-09T14:41:14.402Z,9.30
2018-06-09T14:43:42.556Z,8.73
2018-06-09T14:46:10.703Z,8.07
2018-06-09T14:48:38.833Z,7.80
2018-06-09T14:51:06.982Z,8.03
2018-06-09T14:53:35.123Z,10.60
2018-06-09T14:56:03.278Z,8.80
2018-06-09T14:58:31.399Z,9.77
2018-06-09T15:00:59.540Z,9.67
2018-06-09T15:03:27.660Z,9.63
2018-06-09T15:05:55.816Z,9.63
2018-06-09T15:08:23.988Z,7.77
2018-06-09T15:10:52.156Z,8.20
2018-06-09T15:13:20.298Z,8.63
2018-06-09T15:15:48.439Z,8.60
2018-06-09T15:18:16.575Z,9.00
2018-06-09T15:20:44.711Z,8.60
2018-06-09T15:23:12.834Z,8.83
2018-06-09T15:25:40.989Z,10.37
2018-06-09T15:28:09.184Z,9.33
2018-06-09T15:30:37.287Z,10.87
2018-06-09T15:33:05.439Z,10.73
2018-06-09T15:35:33.637Z,11.40
2018-06-09T15:38:01.782Z,12.53
2018-06-09T15:40:29.919Z,11.37
2018-06-09T15:42:58.108Z,10.50
2018-06-09T15:45:26.247Z,10.87
2018-06-09T15:47:54.390Z,12.70
2018-06-09T15:50:22.546Z,9.60
2018-06-09T15:52:50.716Z,9.50
2018-06-09T15:55:18.863Z,13.27
2018-06-09T15:57:47.040Z,11.63
2018-06-09T16:00:15.191Z,11.87
2018-06-09T16:02:43.358Z,13.77
2018-06-09T16:08:04.695Z,13.90
2018-06-09T16:10:32.844Z,15.83
2018-06-09T16:13:01.011Z,15.30
2018-06-09T16:15:29.151Z,15.93
2018-06-09T16:17:57.467Z,17.63
2018-06-09T16:20:25.623Z,16.87
2018-06-09T16:22:53.815Z,16.27
2018-06-09T16:25:22.007Z,16.17
2018-06-09T16:27:50.148Z,17.00
2018-06-09T16:30:18.327Z,16.50
2018-06-09T16:32:46.526Z,17.57
2018-06-09T16:35:14.667Z,16.00
2018-06-09T16:37:42.891Z,19.10
2018-06-09T16:40:11.063Z,19.00
2018-06-09T16:42:39.303Z,24.90
2018-06-09T16:45:07.459Z,21.07
2018-06-09T16:47:35.657Z,19.70
2018-06-09T16:50:03.782Z,16.97
2018-06-09T16:52:31.957Z,19.97
2018-06-09T16:55:06.479Z,18.30
2018-06-09T16:57:34.649Z,18.63
2018-06-09T17:00:02.806Z,21.20
2018-06-09T17:02:31.086Z,13.80
2018-06-09T17:04:59.263Z,14.07
2018-06-09T17:07:27.411Z,14.83
2018-06-09T17:09:55.567Z,14.27
2018-06-09T17:12:23.728Z,12.93
2018-06-09T17:14:51.879Z,13.03
2018-06-09T17:17:20.214Z,13.00
2018-06-09T17:19:48.417Z,14.30
2018-06-09T17:22:16.580Z,12.43
2018-06-09T17:24:44.739Z,14.73
2018-06-09T17:27:12.905Z,13.00
2018-06-09T17:29:41.057Z,14.37
2018-06-09T17:32:09.398Z,16.53
2018-06-09T17:34:37.851Z,13.40
2018-06-09T17:37:06.034Z,14.90
2018-06-09T17:39:34.203Z,11.90
2018-06-09T17:42:02.413Z,11.50
2018-06-09T17:44:30.707Z,11.77
2018-06-09T17:46:58.839Z,13.83
2018-06-09T17:49:27.030Z,13.63
2018-06-09T17:51:55.175Z,13.00
2018-06-09T17:54:23.360Z,14.80
2018-06-09T17:56:51.523Z,16.57
2018-06-09T17:59:19.694Z,17.87
2018-06-09T18:01:48.228Z,17.00
2018-06-09T18:04:16.590Z,16.00
2018-06-09T18:06:45.164Z,14.73
2018-06-09T18:09:13.588Z,14.97
2018-06-09T18:11:41.956Z,13.90
2018-06-09T18:14:10.225Z,14.37
2018-06-09T18:16:38.525Z,16.00
2018-06-09T18:19:06.883Z,16.80
2018-06-09T18:21:35.159Z,15.70
2018-06-09T18:24:03.426Z,15.80
2018-06-09T18:26:31.652Z,19.20
2018-06-09T18:28:59.915Z,16.30
2018-06-09T18:31:28.213Z,14.57
2018-06-09T18:33:56.553Z,15.57
2018-06-09T18:36:24.766Z,13.60
2018-06-09T18:38:53.117Z,12.60
2018-06-09T18:41:24.605Z,13.50
2018-06-09T18:43:53.049Z,13.97
2018-06-09T18:46:24.033Z,10.60
2018-06-09T18:48:52.294Z,8.30
2018-06-09T18:51:20.689Z,7.10
2018-06-09T18:53:48.953Z,5.77
2018-06-09T18:56:17.245Z,9.77
2018-06-09T18:58:45.559Z,7.23
2018-06-09T19:01:13.751Z,8.70
2018-06-09T19:03:42.036Z,8.50
2018-06-09T19:06:10.720Z,13.30
2018-06-09T19:08:39.025Z,10.93
2018-06-09T19:11:07.442Z,8.10
2018-06-09T19:13:35.676Z,8.13
2018-06-09T19:16:03.960Z,8.67
2018-06-09T19:18:32.538Z,10.90
2018-06-09T19:21:01.550Z,7.00
2018-06-09T19:23:29.801Z,7.83
2018-06-09T19:25:58.081Z,8.20
2018-06-09T19:28:26.497Z,7.73
2018-06-09T19:30:54.793Z,7.13
2018-06-09T19:33:23.083Z,6.97
2018-06-09T19:35:51.293Z,5.67
2018-06-09T19:38:19.674Z,4.70
2018-06-09T19:40:47.990Z,4.77
2018-06-09T19:43:16.953Z,6.90
2018-06-09T19:46:00.498Z,5.23
2018-06-09T19:48:28.796Z,5.70
2018-06-09T19:50:57.111Z,5.43
2018-06-09T19:53:25.555Z,4.70
2018-06-09T19:55:54.048Z,4.90
2018-06-09T19:58:22.558Z,5.67
2018-06-09T20:00:51.025Z,5.67
2018-06-09T20:03:20.451Z,6.40
2018-06-09T20:05:48.652Z,7.87
2018-06-09T20:08:17.074Z,11.10
2018-06-09T20:10:45.316Z,9.87
2018-06-09T20:13:13.547Z,9.50
2018-06-09T20:15:42.020Z,7.47
2018-06-09T20:18:10.353Z,6.70
2018-06-09T20:20:38.618Z,6.80
2018-06-09T20:23:07.945Z,6.83
2018-06-09T20:25:36.506Z,7.03
2018-06-09T20:28:08.317Z,6.67
2018-06-09T20:30:38.320Z,8.37
2018-06-09T20:33:08.361Z,8.40
2018-06-09T20:35:36.608Z,8.73
2018-06-09T20:38:04.914Z,7.90
2018-06-09T20:40:35.564Z,8.83
2018-06-09T20:43:03.823Z,8.00
2018-06-09T20:45:32.079Z,8.27
2018-06-09T20:48:01.038Z,8.73
2018-06-09T20:50:30.388Z,9.30
2018-06-09T20:52:58.657Z,9.20
2018-06-09T20:55:32.756Z,8.37
2018-06-09T20:58:05.233Z,10.27
2018-06-09T21:00:54.344Z,7.67
2018-06-09T21:03:24.825Z,10.17
2018-06-09T21:05:53.401Z,10.60
2018-06-09T21:08:22.607Z,11.20
2018-06-09T21:10:51.044Z,9.47
2018-06-09T21:13:19.596Z,10.57
2018-06-09T21:15:47.884Z,10.70
2018-06-09T21:18:16.775Z,13.30
2018-06-09T21:23:39.657Z,10.47
2018-06-09T21:26:08.529Z,10.83
2018-06-09T21:28:42.214Z,12.33
2018-06-09T21:31:15.786Z,12.23
2018-06-09T21:34:00.771Z,10.70
2018-06-09T21:36:35.037Z,11.43
2018-06-09T21:39:10.431Z,10.87
2018-06-09T21:41:47.837Z,11.83
2018-06-09T21:44:21.440Z,11.10
2018-06-09T21:46:50.263Z,11.17
2018-06-09T21:49:24.764Z,12.20
2018-06-09T21:51:53.573Z,11.83
2018-06-09T21:54:22.050Z,15.00
2018-06-09T21:56:50.395Z,13.20
2018-06-09T21:59:18.706Z,11.20
2018-06-09T22:01:46.992Z,11.33
2018-06-09T22:04:15.293Z,9.97
2018-06-09T22:06:43.609Z,11.10
2018-06-09T22:09:11.884Z,9.20
2018-06-09T22:11:40.267Z,17.53
2018-06-09T22:14:10.018Z,11.90
2018-06-09T22:16:39.243Z,10.77
2018-06-09T22:19:07.590Z,13.30
2018-06-09T22:21:36.466Z,13.90
2018-06-09T22:24:05.006Z,13.20
2018-06-09T22:26:33.278Z,12.30
2018-06-09T22:29:01.645Z,12.63
2018-06-09T22:31:30.037Z,10.43
2018-06-09T22:33:58.352Z,10.57
2018-06-09T22:36:26.681Z,9.00
2018-06-09T22:38:54.984Z,10.57
2018-06-09T22:41:23.260Z,11.33
2018-06-09T22:43:51.467Z,10.80
2018-06-09T22:46:20.263Z,10.57
2018-06-09T22:48:48.595Z,9.83
2018-06-09T22:51:17.012Z,9.23
2018-06-09T22:53:45.281Z,9.33
2018-06-09T22:56:13.611Z,8.53
2018-06-09T22:58:41.854Z,8.67
2018-06-09T23:01:10.300Z,11.33
2018-06-09T23:03:38.742Z,8.73
2018-06-09T23:06:08.097Z,8.40
2018-06-09T23:08:36.457Z,10.30
2018-06-09T23:11:05.516Z,11.57
2018-06-09T23:13:33.875Z,9.47
2018-06-09T23:16:02.339Z,9.00
2018-06-09T23:18:30.586Z,9.40
2018-06-09T23:20:58.841Z,9.13
2018-06-09T23:23:27.096Z,10.20
2018-06-09T23:25:55.537Z,11.00
2018-06-09T23:28:23.815Z,10.63
2018-06-09T23:30:52.084Z,11.93
2018-06-09T23:33:20.410Z,12.20
2018-06-09T23:35:48.739Z,13.53
2018-06-09T23:38:17.023Z,11.40
2018-06-09T23:40:45.426Z,12.27
2018-06-09T23:43:13.729Z,12.13
2018-06-09T23:45:42.062Z,10.37
2018-06-09T23:48:10.472Z,12.87
2018-06-09T23:50:38.692Z,10.90
2018-06-09T23:53:06.904Z,9.63
2018-06-09T23:55:35.260Z,11.07
2018-06-09T23:58:03.533Z,10.00
